createdAt,value
2023-05-19T00:00:37.071Z,102417.41
2023-05-19T00:01:38.780Z,102422.97
2023-05-19T00:02:40.793Z,102421.19
2023-05-19T00:03:57.429Z,102428.44
2023-05-19T00:05:02.827Z,102424.72
2023-05-19T00:06:04.870Z,102423.75
2023-05-19T00:07:08.992Z,102424.63
2023-05-19T00:08:11.328Z,102423.59
2023-05-19T00:09:13.029Z,102421.78
2023-05-19T00:10:15.326Z,102419.81
2023-05-19T00:11:16.925Z,102422.63
2023-05-19T00:12:18.589Z,102423.56
2023-05-19T00:13:21.383Z,102428.88
2023-05-19T00:14:23.070Z,102427.00
2023-05-19T00:15:24.748Z,102425.09
2023-05-19T00:16:27.943Z,102426.16
2023-05-19T00:17:29.626Z,102430.53
2023-05-19T00:18:31.117Z,102429.53
2023-05-19T00:19:33.450Z,102430.31
2023-05-19T00:20:35.005Z,102432.16
2023-05-19T00:21:38.316Z,102433.91
2023-05-19T00:22:40.326Z,102430.19
2023-05-19T00:23:42.358Z,102433.03
2023-05-19T00:24:43.919Z,102433.97
2023-05-19T00:25:45.399Z,102429.44
2023-05-19T00:26:46.823Z,102435.78
2023-05-19T00:27:48.259Z,102438.50
2023-05-19T00:28:50.669Z,102435.75
2023-05-19T00:29:52.149Z,102433.00
2023-05-19T00:30:53.655Z,102421.13
2023-05-19T00:31:56.544Z,102438.69
2023-05-19T00:32:58.357Z,102422.38
2023-05-19T00:33:59.932Z,102423.22
2023-05-19T00:35:01.396Z,102428.66
2023-05-19T00:36:03.920Z,102422.19
2023-05-19T00:37:05.548Z,102428.50
2023-05-19T00:38:07.027Z,102422.19
2023-05-19T00:39:08.509Z,102423.06
2023-05-19T00:40:10.760Z,102418.53
2023-05-19T00:41:12.259Z,102423.00
2023-05-19T00:42:14.526Z,102430.31
2023-05-19T00:43:16.064Z,102426.69
2023-05-19T00:44:17.509Z,102425.94
2023-05-19T00:45:19.062Z,102423.19
2023-05-19T00:46:20.675Z,102426.84
2023-05-19T00:47:22.203Z,102432.16
2023-05-19T00:48:25.836Z,102433.97
2023-05-19T00:49:27.328Z,102429.41
2023-05-19T00:50:29.077Z,102424.88
2023-05-19T00:51:32.048Z,102433.00
2023-05-19T00:52:33.665Z,102416.47
2023-05-19T00:53:35.677Z,102432.03
2023-05-19T00:54:37.072Z,102438.34
2023-05-19T00:55:40.538Z,102429.97
2023-05-19T00:56:42.182Z,102432.81
2023-05-19T00:57:44.394Z,102420.84
2023-05-19T00:58:46.750Z,102428.22
2023-05-19T00:59:48.879Z,102423.63
2023-05-19T01:00:50.621Z,102427.19
2023-05-19T01:01:52.835Z,102423.47
2023-05-19T01:02:56.047Z,102430.75
2023-05-19T01:03:59.140Z,102421.59
2023-05-19T01:05:01.921Z,102431.44
2023-05-19T01:06:05.580Z,102425.91
2023-05-19T01:07:07.758Z,102427.78
2023-05-19T01:08:09.296Z,102430.56
2023-05-19T01:09:11.915Z,102427.69
2023-05-19T01:10:13.461Z,102429.59
2023-05-19T01:11:14.926Z,102430.50
2023-05-19T01:12:16.416Z,102425.91
2023-05-19T01:13:17.968Z,102426.97
2023-05-19T01:14:20.670Z,102420.53
2023-05-19T01:15:23.811Z,102422.41
2023-05-19T01:16:32.639Z,102425.13
2023-05-19T01:17:57.286Z,102423.09
2023-05-19T01:19:12.253Z,102425.66
2023-05-19T01:20:22.712Z,102424.78
2023-05-19T01:21:48.902Z,102424.75
2023-05-19T01:23:16.708Z,102420.19
2023-05-19T01:24:36.295Z,102414.81
2023-05-19T01:26:11.570Z,102417.56
2023-05-19T01:27:16.009Z,102417.53
2023-05-19T01:28:55.257Z,102416.75
2023-05-19T01:30:36.952Z,102417.75
2023-05-19T01:31:41.419Z,102423.19
2023-05-19T01:32:45.490Z,102421.44
2023-05-19T01:33:49.007Z,102422.38
2023-05-19T01:34:51.064Z,102419.59
2023-05-19T01:35:53.326Z,102418.78
2023-05-19T01:36:55.766Z,102425.09
2023-05-19T01:37:59.577Z,102418.78
2023-05-19T01:39:02.317Z,102416.13
2023-05-19T01:40:04.285Z,102422.38
2023-05-19T01:41:06.589Z,102425.03
2023-05-19T01:42:08.344Z,102424.09
2023-05-19T01:43:16.669Z,102417.66
2023-05-19T01:44:19.597Z,102420.31
2023-05-19T01:45:21.685Z,102421.25
2023-05-19T01:46:23.733Z,102423.88
2023-05-19T01:47:25.651Z,102419.50
2023-05-19T01:48:28.550Z,102411.19
2023-05-19T01:49:30.120Z,102415.69
2023-05-19T01:50:32.848Z,102421.09
2023-05-19T01:51:34.633Z,102416.41
2023-05-19T01:52:36.118Z,102419.06
2023-05-19T01:53:37.584Z,102422.66
2023-05-19T01:54:39.120Z,102419.94
2023-05-19T01:55:48.109Z,102427.91
2023-05-19T01:57:04.123Z,102424.22
2023-05-19T01:58:21.280Z,102421.66
2023-05-19T01:59:27.461Z,102422.44
2023-05-19T02:00:45.926Z,102423.31
2023-05-19T02:01:54.854Z,102421.50
2023-05-19T02:03:12.704Z,102418.78
2023-05-19T02:04:49.957Z,102418.78
2023-05-19T02:06:03.446Z,102429.59
2023-05-19T02:07:17.240Z,102424.16
2023-05-19T02:08:33.524Z,102424.16
2023-05-19T02:09:41.074Z,102424.06
2023-05-19T02:10:48.602Z,102424.19
2023-05-19T02:12:06.092Z,102424.97
2023-05-19T02:13:11.204Z,102424.88
2023-05-19T02:14:28.775Z,102423.25
2023-05-19T02:15:38.564Z,102422.31
2023-05-19T02:16:45.023Z,102425.84
2023-05-19T02:17:50.563Z,102421.19
2023-05-19T02:18:53.843Z,102424.00
2023-05-19T02:19:55.415Z,102423.91
2023-05-19T02:20:56.907Z,102427.38
2023-05-19T02:21:58.827Z,102420.97
2023-05-19T02:23:00.326Z,102427.22
2023-05-19T02:24:01.877Z,102429.13
2023-05-19T02:25:03.653Z,102435.50
2023-05-19T02:26:05.279Z,102420.09
2023-05-19T02:27:06.998Z,102428.28
2023-05-19T02:28:08.442Z,102429.09
2023-05-19T02:29:09.928Z,102433.50
2023-05-19T02:30:11.553Z,102428.94
2023-05-19T02:31:13.021Z,102428.94
2023-05-19T02:32:14.858Z,102432.41
2023-05-19T02:33:16.373Z,102425.25
2023-05-19T02:34:17.850Z,102427.16
2023-05-19T02:35:19.467Z,102426.97
2023-05-19T02:36:20.920Z,102425.06
2023-05-19T02:37:23.839Z,102423.22
2023-05-19T02:38:25.793Z,102416.03
2023-05-19T02:39:29.065Z,102427.09
2023-05-19T02:40:30.774Z,102431.44
2023-05-19T02:41:32.534Z,102425.09
2023-05-19T02:42:34.035Z,102426.13
2023-05-19T02:43:35.564Z,102418.09
2023-05-19T02:44:37.040Z,102424.50
2023-05-19T02:45:38.477Z,102419.84
2023-05-19T02:46:40.037Z,102418.09
2023-05-19T02:47:41.644Z,102408.16
2023-05-19T02:48:43.125Z,102421.75
2023-05-19T02:49:45.022Z,102412.63
2023-05-19T02:50:46.481Z,102409.91
2023-05-19T02:51:47.928Z,102420.06
2023-05-19T02:52:49.382Z,102421.84
2023-05-19T02:53:51.018Z,102413.78
2023-05-19T02:54:52.521Z,102420.09
2023-05-19T02:55:54.004Z,102415.66
2023-05-19T02:56:55.566Z,102418.66
2023-05-19T02:57:57.046Z,102419.56
2023-05-19T02:58:58.563Z,102412.28
2023-05-19T03:00:00.159Z,102412.47
2023-05-19T03:01:01.657Z,102416.09
2023-05-19T03:02:03.207Z,102407.19
2023-05-19T03:03:04.763Z,102414.56
2023-05-19T03:04:06.394Z,102417.31
2023-05-19T03:05:08.450Z,102405.66
2023-05-19T03:06:09.818Z,102412.06
2023-05-19T03:07:13.245Z,102416.56
2023-05-19T03:08:14.895Z,102406.56
2023-05-19T03:09:16.442Z,102411.22
2023-05-19T03:10:17.927Z,102409.38
2023-05-19T03:11:19.380Z,102402.22
2023-05-19T03:12:21.800Z,102404.88
2023-05-19T03:13:23.241Z,102395.78
2023-05-19T03:14:24.799Z,102401.19
2023-05-19T03:15:26.321Z,102403.03
2023-05-19T03:16:27.934Z,102395.63
2023-05-19T03:17:33.633Z,102401.81
2023-05-19T03:18:36.018Z,102401.59
2023-05-19T03:19:37.623Z,102401.59
2023-05-19T03:20:41.498Z,102403.25
2023-05-19T03:21:43.152Z,102406.22
2023-05-19T03:22:44.641Z,102400.84
2023-05-19T03:23:47.018Z,102409.75
2023-05-19T03:24:51.033Z,102407.94
2023-05-19T03:25:54.208Z,102408.78
2023-05-19T03:26:55.761Z,102411.59
2023-05-19T03:27:57.215Z,102407.03
2023-05-19T03:28:58.687Z,102414.50
2023-05-19T03:30:00.278Z,102414.56
2023-05-19T03:31:01.724Z,102410.88
2023-05-19T03:32:03.386Z,102410.19
2023-05-19T03:33:07.543Z,102410.19
2023-05-19T03:34:09.297Z,102412.81
2023-05-19T03:35:10.833Z,102410.06
2023-05-19T03:36:12.626Z,102408.16
2023-05-19T03:37:14.198Z,102399.22
2023-05-19T03:38:15.736Z,102409.19
2023-05-19T03:39:17.246Z,102403.66
2023-05-19T03:40:18.934Z,102409.06
2023-05-19T03:41:21.239Z,102405.38
2023-05-19T03:42:22.736Z,102405.41
2023-05-19T03:43:24.229Z,102409.00
2023-05-19T03:44:25.759Z,102401.72
2023-05-19T03:45:27.956Z,102402.75
2023-05-19T03:46:29.478Z,102408.31
2023-05-19T03:47:31.792Z,102404.69
2023-05-19T03:48:33.289Z,102408.34
2023-05-19T03:49:34.774Z,102410.19
2023-05-19T03:50:38.016Z,102402.13
2023-05-19T03:51:39.468Z,102402.22
2023-05-19T03:52:46.585Z,102399.50
2023-05-19T03:53:48.735Z,102400.50
2023-05-19T03:54:51.171Z,102396.00
2023-05-19T03:55:52.617Z,102401.53
2023-05-19T03:56:54.106Z,102394.41
2023-05-19T03:57:56.670Z,102403.41
2023-05-19T03:58:58.121Z,102409.91
2023-05-19T03:59:59.717Z,102408.16
2023-05-19T04:01:01.249Z,102406.44
2023-05-19T04:02:02.925Z,102405.63
2023-05-19T04:03:04.539Z,102404.78
2023-05-19T04:04:06.297Z,102404.84
2023-05-19T04:05:08.500Z,102410.31
2023-05-19T04:06:09.963Z,102409.47
2023-05-19T04:07:11.721Z,102400.50
2023-05-19T04:08:13.202Z,102407.81
2023-05-19T04:09:15.868Z,102398.88
2023-05-19T04:10:17.371Z,102409.06
2023-05-19T04:11:20.046Z,102399.03
2023-05-19T04:12:21.516Z,102405.50
2023-05-19T04:13:23.031Z,102407.28
2023-05-19T04:14:24.737Z,102402.81
2023-05-19T04:15:26.401Z,102400.16
2023-05-19T04:16:27.960Z,102401.16
2023-05-19T04:17:29.639Z,102402.94
2023-05-19T04:18:31.464Z,102407.53
2023-05-19T04:19:32.906Z,102396.72
2023-05-19T04:20:34.687Z,102402.25
2023-05-19T04:21:36.330Z,102405.00
2023-05-19T04:22:37.782Z,102401.31
2023-05-19T04:23:39.355Z,102404.03
2023-05-19T04:24:40.901Z,102398.59
2023-05-19T04:25:42.696Z,102403.22
2023-05-19T04:26:46.918Z,102405.94
2023-05-19T04:27:48.751Z,102397.88
2023-05-19T04:28:50.229Z,102401.56
2023-05-19T04:29:51.711Z,102399.69
2023-05-19T04:30:53.300Z,102407.03
2023-05-19T04:31:55.298Z,102406.16
2023-05-19T04:32:58.120Z,102408.91
2023-05-19T04:34:01.674Z,102411.75
2023-05-19T04:35:03.991Z,102408.00
2023-05-19T04:36:08.727Z,102407.19
2023-05-19T04:37:10.836Z,102410.00
2023-05-19T04:38:12.326Z,102404.53
2023-05-19T04:39:14.441Z,102410.00
2023-05-19T04:40:15.967Z,102410.91
2023-05-19T04:41:17.564Z,102403.69
2023-05-19T04:42:21.869Z,102410.91
2023-05-19T04:43:23.308Z,102401.84
2023-05-19T04:44:24.789Z,102407.31
2023-05-19T04:45:26.328Z,102410.94
2023-05-19T04:46:29.937Z,102409.25
2023-05-19T04:47:31.582Z,102409.25
2023-05-19T04:48:33.329Z,102417.41
2023-05-19T04:49:38.853Z,102409.19
2023-05-19T04:50:42.013Z,102413.78
2023-05-19T04:51:43.476Z,102412.88
2023-05-19T04:52:47.736Z,102406.56
2023-05-19T04:53:49.318Z,102417.56
2023-05-19T04:54:50.939Z,102415.78
2023-05-19T04:55:52.434Z,102414.94
2023-05-19T04:56:53.862Z,102418.63
2023-05-19T04:57:55.606Z,102416.88
2023-05-19T04:58:57.134Z,102417.81
2023-05-19T05:00:00.207Z,102409.56
2023-05-19T05:01:01.810Z,102413.25
2023-05-19T05:02:04.277Z,102413.25
2023-05-19T05:03:06.938Z,102411.38
2023-05-19T05:04:08.623Z,102413.31
2023-05-19T05:05:10.135Z,102418.72
2023-05-19T05:06:11.715Z,102414.22
2023-05-19T05:07:13.291Z,102416.94
2023-05-19T05:08:16.255Z,102411.56
2023-05-19T05:09:18.342Z,102408.81
2023-05-19T05:10:19.958Z,102412.56
2023-05-19T05:11:22.120Z,102414.34
2023-05-19T05:12:23.763Z,102417.06
2023-05-19T05:13:25.560Z,102418.91
2023-05-19T05:14:27.362Z,102412.59
2023-05-19T05:15:29.886Z,102415.41
2023-05-19T05:16:32.071Z,102419.97
2023-05-19T05:17:35.320Z,102412.69
2023-05-19T05:18:38.662Z,102418.19
2023-05-19T05:19:40.597Z,102422.72
2023-05-19T05:20:46.822Z,102410.06
2023-05-19T05:21:48.640Z,102406.47
2023-05-19T05:22:50.324Z,102407.38
2023-05-19T05:23:52.480Z,102414.69
2023-05-19T05:24:54.189Z,102415.69
2023-05-19T05:25:55.952Z,102413.84
2023-05-19T05:26:58.899Z,102415.66
2023-05-19T05:28:04.854Z,102413.78
2023-05-19T05:29:06.617Z,102411.94
2023-05-19T05:30:08.570Z,102412.00
2023-05-19T05:31:09.917Z,102415.66
2023-05-19T05:32:11.410Z,102417.41
2023-05-19T05:33:13.194Z,102409.25
2023-05-19T05:34:14.929Z,102417.47
2023-05-19T05:35:16.585Z,102413.81
2023-05-19T05:36:18.037Z,102417.53
2023-05-19T05:37:19.533Z,102413.88
2023-05-19T05:38:20.984Z,102421.25
2023-05-19T05:39:22.462Z,102421.25
2023-05-19T05:40:24.011Z,102412.22
2023-05-19T05:41:27.268Z,102419.41
2023-05-19T05:42:29.796Z,102423.06
2023-05-19T05:43:31.613Z,102412.16
2023-05-19T05:44:35.600Z,102415.72
2023-05-19T05:45:37.120Z,102411.13
2023-05-19T05:46:38.916Z,102412.06
2023-05-19T05:47:41.523Z,102415.69
2023-05-19T05:48:43.310Z,102416.56
2023-05-19T05:49:48.102Z,102408.50
2023-05-19T05:50:50.657Z,102410.38
2023-05-19T05:52:05.004Z,102412.25
2023-05-19T05:53:09.589Z,102402.44
2023-05-19T05:54:12.511Z,102396.25
2023-05-19T05:55:15.458Z,102398.16
2023-05-19T05:56:17.244Z,102393.72
2023-05-19T05:57:19.089Z,102394.66
2023-05-19T05:58:21.275Z,102397.34
2023-05-19T05:59:22.851Z,102396.47
2023-05-19T06:00:25.059Z,102394.69
2023-05-19T06:01:26.513Z,102392.88
2023-05-19T06:02:31.633Z,102391.94
2023-05-19T06:03:33.495Z,102403.81
2023-05-19T06:04:35.120Z,102393.78
2023-05-19T06:05:37.084Z,102390.13
2023-05-19T06:06:38.863Z,102403.81
2023-05-19T06:07:40.920Z,102390.16
2023-05-19T06:08:42.536Z,102391.94
2023-05-19T06:09:44.080Z,102391.97
2023-05-19T06:10:47.404Z,102387.41
2023-05-19T06:11:49.043Z,102394.69
2023-05-19T06:12:50.565Z,102391.03
2023-05-19T06:13:52.112Z,102390.13
2023-05-19T06:14:53.583Z,102391.03
2023-05-19T06:15:55.075Z,102384.66
2023-05-19T06:16:56.578Z,102384.66
2023-05-19T06:17:58.048Z,102396.50
2023-05-19T06:18:59.711Z,102402.00
2023-05-19T06:20:02.132Z,102394.69
2023-05-19T06:21:03.816Z,102398.34
2023-05-19T06:22:05.401Z,102395.59
2023-05-19T06:23:06.857Z,102399.25
2023-05-19T06:24:08.385Z,102396.50
2023-05-19T06:25:10.157Z,102389.25
2023-05-19T06:26:11.690Z,102401.06
2023-05-19T06:27:13.864Z,102402.00
2023-05-19T06:28:15.463Z,102398.34
2023-05-19T06:29:17.266Z,102398.34
2023-05-19T06:30:18.818Z,102398.34
2023-05-19T06:31:20.279Z,102391.97
2023-05-19T06:32:21.882Z,102398.34
2023-05-19T06:33:23.390Z,102399.25
2023-05-19T06:34:25.011Z,102396.50
2023-05-19T06:35:26.487Z,102399.25
2023-05-19T06:36:28.121Z,102402.00
2023-05-19T06:37:29.641Z,102394.69
2023-05-19T06:38:31.523Z,102392.84
2023-05-19T06:39:33.341Z,102395.59
2023-05-19T06:40:35.967Z,102391.97
2023-05-19T06:41:37.447Z,102389.25
2023-05-19T06:42:38.959Z,102387.41
2023-05-19T06:43:40.614Z,102389.22
2023-05-19T06:44:42.104Z,102386.50
2023-05-19T06:45:43.657Z,102390.13
2023-05-19T06:46:45.274Z,102388.28
2023-05-19T06:47:46.870Z,102392.78
2023-05-19T06:48:48.341Z,102383.66
2023-05-19T06:49:55.874Z,102379.09
2023-05-19T06:50:57.353Z,102379.09
2023-05-19T06:51:58.835Z,102380.00
2023-05-19T06:53:00.553Z,102383.63
2023-05-19T06:54:02.504Z,102385.44
2023-05-19T06:55:04.028Z,102386.34
2023-05-19T06:56:05.922Z,102396.31
2023-05-19T06:57:07.369Z,102394.50
2023-05-19T06:58:08.889Z,102400.88
2023-05-19T06:59:10.819Z,102393.63
2023-05-19T07:00:15.146Z,102384.50
2023-05-19T07:01:18.442Z,102393.59
2023-05-19T07:02:19.934Z,102396.31
2023-05-19T07:03:21.650Z,102403.56
2023-05-19T07:04:23.280Z,102399.88
2023-05-19T07:05:24.729Z,102404.44
2023-05-19T07:06:26.580Z,102392.56
2023-05-19T07:07:28.022Z,102394.31
2023-05-19T07:08:29.461Z,102399.81
2023-05-19T07:09:31.053Z,102394.31
2023-05-19T07:10:32.679Z,102386.94
2023-05-19T07:11:34.625Z,102396.09
2023-05-19T07:12:36.146Z,102389.69
2023-05-19T07:13:37.606Z,102388.81
2023-05-19T07:14:39.139Z,102392.47
2023-05-19T07:15:40.867Z,102387.88
2023-05-19T07:16:42.345Z,102387.81
2023-05-19T07:17:45.565Z,102398.72
2023-05-19T07:18:47.169Z,102390.50
2023-05-19T07:19:48.673Z,102386.84
2023-05-19T07:20:52.212Z,102393.22
2023-05-19T07:21:54.882Z,102392.19
2023-05-19T07:22:56.408Z,102389.41
2023-05-19T07:23:57.916Z,102396.69
2023-05-19T07:24:59.494Z,102393.00
2023-05-19T07:26:01.141Z,102395.69
2023-05-19T07:27:02.671Z,102389.25
2023-05-19T07:28:04.283Z,102391.03
2023-05-19T07:29:05.914Z,102381.81
2023-05-19T07:30:08.336Z,102382.63
2023-05-19T07:31:09.890Z,102388.00
2023-05-19T07:32:11.452Z,102379.75
2023-05-19T07:33:13.022Z,102384.22
2023-05-19T07:34:14.537Z,102376.69
2023-05-19T07:35:16.056Z,102379.34
2023-05-19T07:36:17.638Z,102381.31
2023-05-19T07:37:19.108Z,102375.72
2023-05-19T07:38:20.695Z,102380.22
2023-05-19T07:39:23.513Z,102379.25
2023-05-19T07:40:25.109Z,102381.13
2023-05-19T07:41:26.786Z,102378.47
2023-05-19T07:42:28.274Z,102379.25
2023-05-19T07:43:29.902Z,102386.53
2023-05-19T07:44:31.466Z,102373.78
2023-05-19T07:45:33.030Z,102376.53
2023-05-19T07:46:35.381Z,102372.78
2023-05-19T07:47:37.481Z,102376.50
2023-05-19T07:48:38.969Z,102371.06
2023-05-19T07:49:40.698Z,102370.97
2023-05-19T07:50:42.139Z,102368.06
2023-05-19T07:51:43.686Z,102377.19
2023-05-19T07:52:45.149Z,102367.06
2023-05-19T07:53:47.123Z,102379.81
2023-05-19T07:54:48.767Z,102366.94
2023-05-19T07:55:50.245Z,102370.63
2023-05-19T07:56:51.758Z,102373.56
2023-05-19T07:57:53.255Z,102369.84
2023-05-19T07:58:54.799Z,102367.91
2023-05-19T07:59:56.514Z,102366.94
2023-05-19T08:00:58.963Z,102363.19
2023-05-19T08:02:00.457Z,102363.03
2023-05-19T08:03:02.419Z,102364.91
2023-05-19T08:04:04.075Z,102361.31
2023-05-19T08:05:06.108Z,102363.94
2023-05-19T08:06:07.628Z,102357.47
2023-05-19T08:07:09.077Z,102363.84
2023-05-19T08:08:11.802Z,102363.84
2023-05-19T08:09:13.327Z,102358.28
2023-05-19T08:10:14.888Z,102369.31
2023-05-19T08:11:16.497Z,102364.91
2023-05-19T08:12:17.938Z,102366.84
2023-05-19T08:13:19.444Z,102367.88
2023-05-19T08:14:22.918Z,102370.56
2023-05-19T08:15:25.282Z,102362.41
2023-05-19T08:16:26.835Z,102362.38
2023-05-19T08:17:28.494Z,102365.06
2023-05-19T08:18:30.000Z,102364.91
2023-05-19T08:19:31.572Z,102351.91
2023-05-19T08:20:34.141Z,102367.16
2023-05-19T08:21:36.474Z,102363.06
2023-05-19T08:22:38.235Z,102373.03
2023-05-19T08:23:39.730Z,102372.09
2023-05-19T08:24:43.169Z,102363.72
2023-05-19T08:25:45.589Z,102370.84
2023-05-19T08:26:47.022Z,102374.44
2023-05-19T08:27:48.484Z,102369.78
2023-05-19T08:28:49.966Z,102363.44
2023-05-19T08:29:51.464Z,102368.69
2023-05-19T08:30:52.993Z,102362.03
2023-05-19T08:31:54.522Z,102368.66
2023-05-19T08:32:56.074Z,102375.94
2023-05-19T08:33:57.588Z,102366.53
2023-05-19T08:34:59.063Z,102362.88
2023-05-19T08:36:00.604Z,102362.53
2023-05-19T08:37:03.070Z,102360.06
2023-05-19T08:38:04.540Z,102368.91
2023-05-19T08:39:06.540Z,102362.94
2023-05-19T08:40:11.762Z,102363.03
2023-05-19T08:41:13.256Z,102363.88
2023-05-19T08:42:14.853Z,102360.38
2023-05-19T08:43:16.400Z,102354.06
2023-05-19T08:44:19.114Z,102355.34
2023-05-19T08:45:24.420Z,102355.31
2023-05-19T08:46:26.974Z,102362.34
2023-05-19T08:47:28.669Z,102356.59
2023-05-19T08:48:33.302Z,102346.19
2023-05-19T08:49:42.897Z,102352.34
2023-05-19T08:50:52.911Z,102357.00
2023-05-19T08:52:06.295Z,102351.03
2023-05-19T08:53:33.222Z,102360.16
2023-05-19T08:55:01.034Z,102359.34
2023-05-19T08:56:11.741Z,102354.69
2023-05-19T08:57:14.029Z,102358.28
2023-05-19T08:58:20.346Z,102350.47
2023-05-19T08:59:22.680Z,102346.22
2023-05-19T09:00:24.840Z,102343.41
2023-05-19T09:01:28.890Z,102347.41
2023-05-19T09:02:30.904Z,102345.56
2023-05-19T09:03:38.055Z,102345.75
2023-05-19T09:04:41.453Z,102344.09
2023-05-19T09:05:43.263Z,102342.50
2023-05-19T09:06:45.365Z,102340.09
2023-05-19T09:07:48.224Z,102330.84
2023-05-19T09:08:49.805Z,102334.41
2023-05-19T09:09:51.583Z,102334.75
2023-05-19T09:10:53.050Z,102326.06
2023-05-19T09:11:54.554Z,102327.94
2023-05-19T09:12:56.188Z,102329.41
2023-05-19T09:13:57.655Z,102319.78
2023-05-19T09:14:59.288Z,102319.56
2023-05-19T09:16:01.978Z,102304.88
2023-05-19T09:17:04.189Z,102306.22
2023-05-19T09:18:11.283Z,102319.41
2023-05-19T09:19:15.880Z,102314.06
2023-05-19T09:20:17.528Z,102321.97
2023-05-19T09:21:19.113Z,102320.63
2023-05-19T09:22:21.116Z,102313.63
2023-05-19T09:23:24.863Z,102309.97
2023-05-19T09:24:26.933Z,102307.09
2023-05-19T09:25:28.482Z,102312.78
2023-05-19T09:26:37.557Z,102316.19
2023-05-19T09:27:39.213Z,102305.53
2023-05-19T09:28:41.061Z,102305.69
2023-05-19T09:29:43.149Z,102302.06
2023-05-19T09:30:44.608Z,102300.88
2023-05-19T09:31:53.735Z,102295.59
2023-05-19T09:32:55.343Z,102289.91
2023-05-19T09:33:56.842Z,102299.03
2023-05-19T09:34:58.759Z,102295.41
2023-05-19T09:36:00.619Z,102295.13
2023-05-19T09:37:02.096Z,102288.66
2023-05-19T09:38:03.642Z,102301.22
2023-05-19T09:39:13.508Z,102296.41
2023-05-19T09:40:16.009Z,102299.84
2023-05-19T09:41:17.632Z,102295.19
2023-05-19T09:42:30.079Z,102301.38
2023-05-19T09:43:36.439Z,102292.78
2023-05-19T09:44:38.035Z,102296.13
2023-05-19T09:45:39.486Z,102304.56
2023-05-19T09:46:48.193Z,102307.81
2023-05-19T09:47:49.668Z,102303.94
2023-05-19T09:48:51.483Z,102307.38
2023-05-19T09:49:53.595Z,102308.00
2023-05-19T09:50:55.240Z,102302.84
2023-05-19T09:51:57.957Z,102297.88
2023-05-19T09:53:00.160Z,102301.31
2023-05-19T09:54:02.096Z,102309.84
2023-05-19T09:55:05.566Z,102299.16
2023-05-19T09:56:08.745Z,102294.38
2023-05-19T09:57:10.318Z,102288.59
2023-05-19T09:58:17.228Z,102292.81
2023-05-19T09:59:20.110Z,102299.97
2023-05-19T10:00:23.017Z,102293.31
2023-05-19T10:01:25.610Z,102288.97
2023-05-19T10:02:28.135Z,102277.84
2023-05-19T10:03:30.950Z,102288.59
2023-05-19T10:04:32.492Z,102279.22
2023-05-19T10:05:34.588Z,102290.13
2023-05-19T10:06:36.959Z,102286.56
2023-05-19T10:07:40.427Z,102275.38
2023-05-19T10:08:42.599Z,102283.63
2023-05-19T10:09:45.059Z,102276.81
2023-05-19T10:10:47.629Z,102273.34
2023-05-19T10:11:51.478Z,102275.69
2023-05-19T10:12:54.478Z,102275.84
2023-05-19T10:13:56.711Z,102271.09
2023-05-19T10:14:59.320Z,102280.72
2023-05-19T10:16:01.379Z,102276.09
2023-05-19T10:17:04.046Z,102267.50
2023-05-19T10:18:09.053Z,102263.25
2023-05-19T10:19:12.690Z,102268.03
2023-05-19T10:20:16.130Z,102261.50
2023-05-19T10:21:18.235Z,102263.44
2023-05-19T10:22:19.702Z,102269.91
2023-05-19T10:23:22.262Z,102273.72
2023-05-19T10:24:23.909Z,102268.66
2023-05-19T10:25:25.768Z,102274.59
2023-05-19T10:26:28.328Z,102270.59
2023-05-19T10:27:31.548Z,102268.03
2023-05-19T10:28:38.403Z,102265.44
2023-05-19T10:29:44.385Z,102259.63
2023-05-19T10:30:49.459Z,102263.34
2023-05-19T10:31:53.380Z,102273.47
2023-05-19T10:32:57.263Z,102262.63
2023-05-19T10:34:34.720Z,102270.28
2023-05-19T10:35:58.023Z,102269.06
2023-05-19T10:37:16.948Z,102271.31
2023-05-19T10:38:43.056Z,102262.81
2023-05-19T10:39:45.029Z,102267.34
2023-05-19T10:41:22.970Z,102266.09
2023-05-19T10:42:41.008Z,102268.31
2023-05-19T10:43:51.342Z,102269.34
2023-05-19T10:45:13.634Z,102268.09
2023-05-19T10:46:15.779Z,102263.97
2023-05-19T10:47:24.335Z,102258.38
2023-05-19T10:48:25.931Z,102258.75
2023-05-19T10:49:27.686Z,102257.41
2023-05-19T10:50:35.380Z,102260.03
2023-05-19T10:51:37.203Z,102256.22
2023-05-19T10:52:39.225Z,102252.34
2023-05-19T10:53:46.141Z,102243.63
2023-05-19T10:54:47.733Z,102253.13
2023-05-19T10:55:56.060Z,102245.97
2023-05-19T10:56:57.937Z,102243.25
2023-05-19T10:58:00.408Z,102246.38
2023-05-19T10:59:03.464Z,102247.66
2023-05-19T11:00:29.114Z,102242.59
2023-05-19T11:01:34.615Z,102237.09
2023-05-19T11:02:43.899Z,102248.28
2023-05-19T11:03:52.118Z,102243.03
2023-05-19T11:04:56.282Z,102244.44
2023-05-19T11:06:17.489Z,102240.69
2023-05-19T11:07:22.038Z,102243.78
2023-05-19T11:08:34.382Z,102238.38
2023-05-19T11:09:41.101Z,102236.44
2023-05-19T11:10:46.266Z,102243.47
2023-05-19T11:11:49.973Z,102239.41
2023-05-19T11:12:52.266Z,102231.63
2023-05-19T11:13:55.178Z,102238.06
2023-05-19T11:14:59.308Z,102244.66
2023-05-19T11:16:08.216Z,102244.72
2023-05-19T11:17:16.070Z,102234.59
2023-05-19T11:18:19.282Z,102238.66
2023-05-19T11:19:35.049Z,102245.38
2023-05-19T11:20:39.196Z,102233.13
2023-05-19T11:21:52.519Z,102233.78
2023-05-19T11:23:20.198Z,102236.91
2023-05-19T11:24:38.057Z,102234.84
2023-05-19T11:25:43.192Z,102238.00
2023-05-19T11:26:45.652Z,102231.38
2023-05-19T11:27:47.178Z,102231.84
2023-05-19T11:28:49.038Z,102244.06
2023-05-19T11:29:51.778Z,102240.25
2023-05-19T11:30:55.016Z,102228.59
2023-05-19T11:31:56.669Z,102231.09
2023-05-19T11:32:58.888Z,102229.88
2023-05-19T11:34:00.464Z,102225.56
2023-05-19T11:35:02.816Z,102220.44
2023-05-19T11:36:04.930Z,102220.97
2023-05-19T11:37:06.765Z,102229.97
2023-05-19T11:38:08.187Z,102216.63
2023-05-19T11:39:10.479Z,102222.91
2023-05-19T11:40:15.641Z,102223.66
2023-05-19T11:41:18.821Z,102224.16
2023-05-19T11:42:21.870Z,102222.47
2023-05-19T11:43:25.267Z,102212.69
2023-05-19T11:44:26.735Z,102224.31
2023-05-19T11:45:31.602Z,102231.88
2023-05-19T11:46:33.241Z,102223.72
2023-05-19T11:47:46.499Z,102225.31
2023-05-19T11:48:56.469Z,102217.06
2023-05-19T11:49:58.031Z,102233.31
2023-05-19T11:51:00.949Z,102227.88
2023-05-19T11:52:03.873Z,102233.22
2023-05-19T11:53:05.550Z,102228.81
2023-05-19T11:54:10.282Z,102230.44
2023-05-19T11:55:19.043Z,102229.56
2023-05-19T11:56:21.520Z,102226.25
2023-05-19T11:57:23.045Z,102226.47
2023-05-19T11:58:27.882Z,102227.78
2023-05-19T11:59:39.147Z,102220.19
2023-05-19T12:00:42.848Z,102234.19
2023-05-19T12:01:44.333Z,102236.31
2023-05-19T12:02:45.878Z,102233.31
2023-05-19T12:03:49.741Z,102230.78
2023-05-19T12:04:51.796Z,102227.91
2023-05-19T12:05:53.717Z,102227.38